Time;durP1;ratioP1;P1;durP2;ratioP2;P2;SDS_P1;SDS_P2;PMS_P1;PMS_P2;Temp;Humidity;BMP_temperature;BMP_pressure;BME280_temperature;BME280_humidity;BME280_pressure;Samples;Min_cycle;Max_cycle;Signal;HPM_P1;HPM_P2
2020/12/01 00:00:26;;;;;;;23.13;15.03;;;;;;;0.73;82.58;96946.72;5091580;28;20184;-72
2020/12/01 00:02:52;;;;;;;22.53;13.63;;;;;;;0.65;83.88;96946.75;5091121;28;20176;-72
2020/12/01 00:05:20;;;;;;;23.07;14.23;;;;;;;0.89;83.13;96946.75;5090316;28;20184;-73
2020/12/01 00:07:45;;;;;;;21.93;14.17;;;;;;;0.74;83.29;96949.16;5091741;28;20184;-73
2020/12/01 00:10:12;;;;;;;23.33;14.50;;;;;;;0.72;84.07;96945.16;5091077;28;20591;-74
2020/12/01 00:12:42;;;;;;;24.53;14.90;;;;;;;0.70;84.43;96949.66;5091831;28;20181;-72
2020/12/01 00:15:10;;;;;;;22.63;14.73;;;;;;;0.74;85.20;96946.59;5089476;28;20177;-73
2020/12/01 00:17:36;;;;;;;21.13;13.70;;;;;;;0.69;86.14;96942.88;5090737;28;20518;-73
2020/12/01 00:20:02;;;;;;;24.37;15.07;;;;;;;0.66;86.36;96938.06;5090689;28;20187;-72
2020/12/01 00:22:27;;;;;;;25.10;13.93;;;;;;;0.65;86.04;96931.28;5091481;28;20577;-73
2020/12/01 00:24:52;;;;;;;23.43;15.13;;;;;;;0.67;85.96;96932.72;5090901;28;20180;-73
2020/12/01 00:27:18;;;;;;;22.43;14.63;;;;;;;0.70;85.66;96919.50;5089836;28;20409;-73
2020/12/01 00:29:43;;;;;;;25.23;15.30;;;;;;;0.67;87.30;96916.47;5092968;28;20199;-72
2020/12/01 00:32:08;;;;;;;22.90;14.27;;;;;;;0.71;86.90;96908.22;5094686;28;20723;-73
2020/12/01 00:34:34;;;;;;;24.87;15.00;;;;;;;0.60;87.89;96911.13;5095564;28;20188;-72
2020/12/01 00:37:03;;;;;;;24.73;15.70;;;;;;;0.57;89.24;96898.53;5095121;28;20184;-73
2020/12/01 00:39:28;;;;;;;24.57;15.60;;;;;;;0.53;89.32;96896.47;5093945;28;20189;-72
2020/12/01 00:41:54;;;;;;;22.80;14.87;;;;;;;0.59;89.45;96891.47;5094556;28;20187;-73
2020/12/01 00:44:19;;;;;;;26.20;15.10;;;;;;;0.67;89.50;96882.94;5077071;28;20267;-75
2020/12/01 00:46:45;;;;;;;26.97;15.37;;;;;;;0.76;89.35;96872.44;5094854;28;20599;-75
2020/12/01 00:49:11;;;;;;;24.70;15.30;;;;;;;0.80;88.59;96865.97;5092914;28;20193;-75
2020/12/01 00:51:36;;;;;;;23.13;14.67;;;;;;;0.80;88.62;96863.38;5094842;28;20176;-76
2020/12/01 00:54:02;;;;;;;25.10;15.80;;;;;;;0.66;89.71;96856.34;5094295;28;20177;-76
2020/12/01 00:56:27;;;;;;;25.97;15.60;;;;;;;0.72;89.81;96860.84;5094711;28;20618;-76
2020/12/01 00:58:53;;;;;;;26.53;16.20;;;;;;;0.71;90.00;96843.75;5093748;28;20180;-75
2020/12/01 01:01:19;;;;;;;29.07;16.40;;;;;;;0.67;90.59;96852.75;5093777;28;20235;-77
2020/12/01 01:03:47;;;;;;;31.10;18.30;;;;;;;0.71;89.97;96843.75;5094972;28;20209;-78
2020/12/01 01:06:14;;;;;;;24.40;16.10;;;;;;;0.73;90.50;96838.41;5093972;28;20557;-78
2020/12/01 01:08:39;;;;;;;27.30;16.33;;;;;;;0.64;90.71;96835.03;5092728;28;20193;-78
2020/12/01 01:11:06;;;;;;;29.23;16.17;;;;;;;0.55;92.19;96825.72;5093834;28;20237;-78
2020/12/01 01:21:10;;;;;;;26.37;17.10;;;;;;;0.65;92.21;96807.50;5178767;23;20760;-72
2020/12/01 01:23:35;;;;;;;26.47;17.43;;;;;;;0.61;92.60;96809.59;5017766;28;20191;-72
2020/12/01 01:26:01;;;;;;;28.23;17.73;;;;;;;0.59;93.04;96800.41;5031912;28;20190;-72
2020/12/01 01:28:26;;;;;;;27.83;16.83;;;;;;;0.61;92.85;96806.22;5018199;28;20575;-71
2020/12/01 01:30:51;;;;;;;31.27;17.23;;;;;;;0.45;93.75;96807.00;5026520;28;20218;-72
2020/12/01 01:33:17;;;;;;;25.93;16.47;;;;;;;0.45;94.50;96799.28;5026642;28;20232;-72
2020/12/01 01:35:42;;;;;;;25.30;16.10;;;;;;;0.41;95.13;96798.00;5021321;28;20183;-71
2020/12/01 01:38:08;;;;;;;29.60;16.73;;;;;;;0.58;94.61;96791.88;5034554;28;20553;-71
2020/12/01 01:40:34;;;;;;;25.50;15.97;;;;;;;0.52;94.64;96792.50;5023539;28;20187;-72
2020/12/01 01:43:01;;;;;;;25.47;15.60;;;;;;;0.64;94.16;96785.25;5028028;28;20649;-72
2020/12/01 01:45:43;;;;;;;24.40;15.73;;;;;;;0.57;94.80;96790.25;5015822;28;20560;-72
2020/12/01 01:48:17;;;;;;;26.07;16.33;;;;;;;0.65;94.97;96790.25;5005240;28;20556;-72
2020/12/01 01:50:53;;;;;;;25.67;15.47;;;;;;;0.82;93.76;96778.91;5023364;28;20243;-72
2020/12/01 01:53:19;;;;;;;26.67;15.50;;;;;;;0.90;93.70;96777.25;5029598;28;20183;-72
2020/12/01 01:55:45;;;;;;;24.97;17.10;;;;;;;0.89;93.22;96779.06;5016706;28;20533;-71
2020/12/01 01:58:12;;;;;;;23.77;14.77;;;;;;;0.71;94.44;96773.31;5032734;28;20686;-72
2020/12/01 02:00:56;;;;;;;25.37;15.67;;;;;;;0.90;93.20;96772.91;5024726;28;20218;-72
2020/12/01 02:03:41;;;;;;;25.50;15.17;;;;;;;1.01;92.84;96758.84;5030674;28;20241;-71
2020/12/01 02:06:19;;;;;;;23.17;14.63;;;;;;;0.78;94.35;96759.56;5029446;28;20171;-71
2020/12/01 02:09:10;;;;;;;24.80;15.33;;;;;;;0.99;92.91;96745.31;5014048;28;20199;-71
2020/12/01 02:11:38;;;;;;;25.10;14.50;;;;;;;0.97;92.98;96742.91;5003324;28;20167;-72
2020/12/01 02:14:15;;;;;;;24.70;15.43;;;;;;;0.95;93.17;96736.31;5018838;28;20179;-72
2020/12/01 02:16:46;;;;;;;24.07;14.77;;;;;;;1.00;92.84;96728.88;5021332;28;20515;-72
2020/12/01 02:19:15;;;;;;;24.00;14.57;;;;;;;0.90;93.73;96729.06;5029709;28;20195;-72
2020/12/01 02:21:42;;;;;;;22.40;13.83;;;;;;;0.92;93.82;96718.56;5018413;28;20223;-72
2020/12/01 02:24:11;;;;;;;23.23;14.90;;;;;;;1.03;93.35;96705.28;5032125;28;20643;-72
2020/12/01 02:26:37;;;;;;;23.43;14.00;;;;;;;1.01;93.32;96714.97;5023980;28;20193;-72
2020/12/01 02:29:07;;;;;;;22.00;14.53;;;;;;;1.04;92.31;96699.16;5027614;28;20207;-72
2020/12/01 02:31:32;;;;;;;24.10;14.40;;;;;;;1.05;92.58;96690.47;5020606;28;20238;-72
2020/12/01 02:33:58;;;;;;;23.30;14.07;;;;;;;1.07;92.55;96693.66;5029467;28;20190;-72
2020/12/01 02:36:23;;;;;;;22.87;14.10;;;;;;;1.00;91.75;96690.16;5027037;28;20188;-72
2020/12/01 02:38:48;;;;;;;23.17;14.23;;;;;;;1.00;92.51;96688.41;5022650;28;20232;-72
2020/12/01 02:41:14;;;;;;;21.10;13.60;;;;;;;1.08;92.37;96677.22;5020973;28;20652;-73
2020/12/01 02:43:39;;;;;;;21.27;13.07;;;;;;;1.06;91.98;96681.75;5017464;28;20266;-73
2020/12/01 02:46:05;;;;;;;20.40;13.20;;;;;;;1.10;91.23;96670.91;5028907;28;20179;-73
2020/12/01 02:48:30;;;;;;;22.80;13.27;;;;;;;1.19;91.01;96661.34;5027268;28;20744;-72
2020/12/01 02:50:55;;;;;;;22.17;13.17;;;;;;;1.19;90.54;96664.72;5023709;28;20274;-72
2020/12/01 02:53:21;;;;;;;20.17;12.67;;;;;;;1.04;91.67;96653.53;5028550;28;20186;-72
2020/12/01 02:55:46;;;;;;;20.00;12.70;;;;;;;1.06;91.38;96651.56;5029113;28;20253;-71
2020/12/01 02:58:12;;;;;;;23.40;12.87;;;;;;;0.97;92.55;96641.47;5028085;28;20206;-72
2020/12/01 03:00:37;;;;;;;22.03;12.67;;;;;;;1.16;91.57;96641.03;5019740;28;20210;-72
2020/12/01 03:03:02;;;;;;;20.80;13.23;;;;;;;1.06;92.76;96632.72;5020732;28;20182;-72
2020/12/01 03:05:28;;;;;;;18.90;11.90;;;;;;;1.14;91.87;96627.50;5020343;28;20190;-71
2020/12/01 03:07:53;;;;;;;20.80;12.07;;;;;;;1.23;91.83;96627.25;5027527;28;20221;-72
2020/12/01 03:10:19;;;;;;;19.00;12.53;;;;;;;1.17;92.35;96614.25;4995536;28;20309;-71
2020/12/01 03:12:45;;;;;;;20.47;12.00;;;;;;;1.21;92.28;96616.31;5020782;28;20210;-71
2020/12/01 03:15:13;;;;;;;20.90;12.57;;;;;;;1.30;92.13;96616.25;5020835;28;20651;-72
2020/12/01 03:17:39;;;;;;;18.67;11.97;;;;;;;1.20;92.85;96612.13;5027369;28;20189;-72
2020/12/01 03:20:04;;;;;;;20.87;12.10;;;;;;;1.30;93.26;96609.31;5015377;28;20585;-71
2020/12/01 03:22:30;;;;;;;18.33;11.50;;;;;;;1.14;93.82;96604.28;5025015;28;20179;-72
2020/12/01 03:24:55;;;;;;;18.10;12.20;;;;;;;1.28;93.69;96603.53;5023104;28;20664;-72
2020/12/01 03:27:20;;;;;;;21.50;11.23;;;;;;;1.30;93.69;96598.19;5025927;28;20187;-72
2020/12/01 03:29:46;;;;;;;18.00;10.97;;;;;;;1.19;94.39;96591.66;5014659;28;20203;-72
2020/12/01 03:32:11;;;;;;;18.73;10.73;;;;;;;1.22;93.57;96591.31;5005834;28;20183;-72
2020/12/01 03:34:37;;;;;;;18.07;11.30;;;;;;;1.27;93.76;96589.03;5023072;28;20277;-72
2020/12/01 03:37:02;;;;;;;19.27;11.77;;;;;;;1.18;95.05;96590.84;5019104;28;20191;-73
2020/12/01 03:39:28;;;;;;;20.80;12.40;;;;;;;1.11;95.54;96582.19;5026573;28;20236;-72
2020/12/01 03:41:53;;;;;;;18.33;11.20;;;;;;;1.28;94.85;96582.88;5027042;28;20179;-72
2020/12/01 03:44:18;;;;;;;17.87;10.93;;;;;;;1.20;95.02;96577.78;5017522;28;20185;-72
2020/12/01 03:46:44;;;;;;;20.00;11.73;;;;;;;1.28;94.74;96579.50;5023578;28;20606;-72
2020/12/01 03:49:09;;;;;;;17.77;11.07;;;;;;;1.20;95.22;96580.34;5015878;28;20191;-72
2020/12/01 03:51:35;;;;;;;16.43;11.03;;;;;;;1.32;95.52;96578.16;5020067;28;20639;-71
2020/12/01 03:54:00;;;;;;;18.90;11.13;;;;;;;1.29;95.39;96574.13;5018880;28;20258;-72
2020/12/01 03:56:26;;;;;;;19.73;12.13;;;;;;;1.29;95.75;96575.91;5014215;28;20180;-72
2020/12/01 03:58:51;;;;;;;22.23;12.93;;;;;;;1.31;95.57;96569.63;5019448;28;20750;-73
2020/12/01 04:01:16;;;;;;;20.83;13.37;;;;;;;1.31;96.19;96551.53;5026465;28;20198;-73
2020/12/01 04:03:42;;;;;;;20.23;12.40;;;;;;;1.35;95.62;96555.38;5015883;28;20566;-72
2020/12/01 04:06:07;;;;;;;22.17;12.73;;;;;;;1.19;96.46;96564.06;5016807;28;20611;-73
2020/12/01 04:08:33;;;;;;;17.73;11.37;;;;;;;1.34;96.44;96561.50;5013928;28;20242;-72
2020/12/01 04:11:02;;;;;;;21.37;11.87;;;;;;;1.29;96.77;96558.66;5019114;28;20183;-72
2020/12/01 04:13:27;;;;;;;19.87;11.50;;;;;;;1.21;97.29;96551.78;5029754;28;20231;-71
2020/12/01 04:15:52;;;;;;;20.33;12.53;;;;;;;1.13;97.69;96548.47;5028788;28;20527;-73
2020/12/01 04:18:18;;;;;;;19.67;11.93;;;;;;;1.30;96.76;96543.97;5018715;28;20675;-74
2020/12/01 04:20:43;;;;;;;18.53;11.43;;;;;;;1.24;97.67;96542.88;5025100;28;20229;-73
2020/12/01 04:23:09;;;;;;;18.90;11.47;;;;;;;1.28;97.70;96545.94;5013517;28;20180;-74
2020/12/01 04:25:34;;;;;;;22.87;12.87;;;;;;;1.45;96.86;96545.59;5019085;28;20183;-73
2020/12/01 04:27:59;;;;;;;21.63;12.67;;;;;;;1.37;96.88;96543.09;5002831;28;20636;-73
2020/12/01 04:30:25;;;;;;;19.93;11.90;;;;;;;1.47;96.27;96548.81;5025805;28;20194;-74
2020/12/01 04:32:52;;;;;;;20.67;12.07;;;;;;;1.28;97.65;96544.16;5013645;28;20322;-73
2020/12/01 04:35:21;;;;;;;18.47;12.53;;;;;;;1.34;97.89;96540.84;5016518;28;20186;-74
2020/12/01 04:37:46;;;;;;;18.90;12.07;;;;;;;1.40;97.58;96536.78;5003698;28;20183;-74
2020/12/01 04:40:20;;;;;;;18.53;11.00;;;;;;;1.40;97.46;96544.53;5023440;28;20190;-73
2020/12/01 04:42:57;;;;;;;19.23;11.80;;;;;;;1.34;97.66;96534.91;5008086;28;20263;-72
2020/12/01 04:45:23;;;;;;;18.80;11.43;;;;;;;1.33;97.47;96528.16;5025418;28;20598;-73
2020/12/01 04:48:01;;;;;;;19.87;11.20;;;;;;;1.39;97.87;96536.00;5022762;28;20186;-72
2020/12/01 04:50:39;;;;;;;19.90;11.40;;;;;;;1.34;98.24;96533.13;5004799;28;20183;-73
2020/12/01 04:53:32;;;;;;;16.50;10.73;;;;;;;1.54;97.64;96529.06;5007711;28;20190;-73
2020/12/01 04:56:17;;;;;;;17.30;10.97;;;;;;;1.50;97.74;96537.34;5022018;28;20182;-73
2020/12/01 04:58:48;;;;;;;17.13;11.23;;;;;;;1.52;97.71;96522.47;5012230;28;20180;-73
2020/12/01 05:01:13;;;;;;;16.90;11.00;;;;;;;1.66;97.03;96521.69;5012636;28;20187;-74
2020/12/01 05:04:03;;;;;;;16.70;10.93;;;;;;;1.65;96.36;96515.72;5012239;28;20203;-73
2020/12/01 05:09:44;;;;;;;16.27;10.30;;;;;;;1.65;96.41;96510.56;5000742;28;20551;-73
2020/12/01 05:12:30;;;;;;;15.73;11.13;;;;;;;1.52;97.79;96505.19;5018447;28;20254;-73
2020/12/01 05:15:14;;;;;;;17.20;10.80;;;;;;;1.63;97.31;96507.34;5018608;28;20203;-73
2020/12/01 05:18:01;;;;;;;17.30;11.00;;;;;;;1.56;97.73;96511.59;5030221;28;20674;-72
2020/12/01 05:20:27;;;;;;;16.73;10.93;;;;;;;1.54;97.89;96507.59;5029788;28;20231;-73
2020/12/01 05:22:57;;;;;;;17.57;10.93;;;;;;;1.62;97.74;96504.91;5029589;28;20244;-73
2020/12/01 05:25:25;;;;;;;16.40;10.40;;;;;;;1.62;97.78;96505.72;5015671;28;20175;-73
2020/12/01 05:28:03;;;;;;;19.33;12.40;;;;;;;1.64;97.17;96513.31;5021715;28;20186;-73
2020/12/01 05:30:28;;;;;;;18.50;11.10;;;;;;;1.60;97.62;96501.72;5016541;28;20656;-73
2020/12/01 05:32:58;;;;;;;22.73;11.90;;;;;;;1.68;97.48;96505.03;5023175;28;20262;-73
2020/12/01 05:35:30;;;;;;;16.70;10.70;;;;;;;1.49;97.94;96507.34;5028197;28;20238;-73
2020/12/01 05:37:57;;;;;;;20.20;11.87;;;;;;;1.58;98.28;96501.09;5022902;28;20180;-73
2020/12/01 05:40:24;;;;;;;25.50;11.20;;;;;;;1.57;97.91;96505.47;5021639;28;20275;-73
2020/12/01 05:42:50;;;;;;;17.43;10.73;;;;;;;1.55;98.67;96502.28;5021308;28;20183;-73
2020/12/01 05:45:25;;;;;;;16.97;10.90;;;;;;;1.55;98.38;96512.59;5019174;28;20182;-73
2020/12/01 05:48:02;;;;;;;17.43;10.93;;;;;;;1.64;97.81;96514.09;5023378;28;20262;-73
2020/12/01 05:50:30;;;;;;;17.50;11.40;;;;;;;1.63;98.07;96515.09;5018991;28;20183;-74
2020/12/01 05:53:10;;;;;;;15.30;10.53;;;;;;;1.56;97.94;96519.34;5021440;28;20176;-74
2020/12/01 05:55:35;;;;;;;15.57;10.93;;;;;;;1.53;98.06;96518.91;5014691;28;20185;-72
2020/12/01 05:58:12;;;;;;;17.63;11.00;;;;;;;1.46;98.78;96518.00;5023328;28;20654;-73
2020/12/01 06:00:41;;;;;;;19.13;11.70;;;;;;;1.62;98.25;96513.47;5031298;28;20186;-72
2020/12/01 06:03:30;;;;;;;17.10;11.73;;;;;;;1.62;97.90;96518.63;5025391;28;20179;-73
2020/12/01 06:06:01;;;;;;;20.57;11.50;;;;;;;1.67;97.59;96510.38;5029739;28;20792;-73
2020/12/01 06:08:31;;;;;;;16.83;11.13;;;;;;;1.73;98.10;96517.41;5012611;28;20555;-73
2020/12/01 06:11:22;;;;;;;17.57;10.90;;;;;;;1.65;98.52;96509.75;5026826;28;20197;-73
2020/12/01 06:13:48;;;;;;;16.93;10.83;;;;;;;1.64;98.18;96513.31;5001964;28;20208;-73
2020/12/01 06:16:18;;;;;;;18.10;10.97;;;;;;;1.66;98.29;96513.94;5015684;28;20233;-74
2020/12/01 06:18:55;;;;;;;15.87;11.17;;;;;;;1.36;99.78;96509.72;5013900;28;20202;-73
2020/12/01 06:21:53;;;;;;;16.73;10.80;;;;;;;1.35;100.00;96508.91;4985543;28;20751;-75
2020/12/01 06:24:43;;;;;;;15.97;10.77;;;;;;;1.56;99.55;96509.00;5014042;28;20225;-78
2020/12/01 06:27:33;;;;;;;17.83;11.23;;;;;;;1.57;99.26;96508.03;4997166;28;20187;-76
2020/12/01 06:30:16;;;;;;;20.07;11.37;;;;;;;1.63;99.23;96509.13;5022938;28;20210;-74
2020/12/01 06:33:03;;;;;;;17.87;11.30;;;;;;;1.71;98.45;96503.88;5015771;28;20283;-75
2020/12/01 06:36:13;;;;;;;17.47;10.87;;;;;;;1.96;98.51;96505.19;5007282;28;20209;-78
2020/12/01 06:38:47;;;;;;;18.70;11.77;;;;;;;1.85;98.62;96507.41;4929349;29;20202;-72
2020/12/01 06:41:17;;;;;;;17.10;11.00;;;;;;;1.91;97.81;96507.50;5008630;28;20190;-77
2020/12/01 06:43:57;;;;;;;18.37;10.97;;;;;;;1.91;97.58;96502.34;5020430;28;20266;-76
2020/12/01 06:46:43;;;;;;;17.10;11.23;;;;;;;1.87;97.73;96497.72;5020685;28;20530;-75
2020/12/01 06:49:17;;;;;;;17.53;11.00;;;;;;;1.87;97.47;96502.88;4997060;28;20198;-77
2020/12/01 06:51:52;;;;;;;15.80;10.87;;;;;;;1.96;97.16;96491.47;5005979;28;20735;-76
2020/12/01 06:54:18;;;;;;;16.57;10.33;;;;;;;1.96;97.93;96497.44;5025915;28;20198;-76
2020/12/01 06:57:45;;;;;;;16.10;10.27;;;;;;;1.84;98.49;96501.44;5019048;28;20192;-79
2020/12/01 07:00:11;;;;;;;17.23;10.20;;;;;;;1.81;98.18;96507.00;4962491;28;20226;-73
2020/12/01 07:02:38;;;;;;;15.63;9.93;;;;;;;1.84;98.05;96508.44;5018957;28;20191;-69
2020/12/01 07:05:28;;;;;;;16.00;9.70;;;;;;;2.04;97.46;96499.94;5031134;28;20193;-76
2020/12/01 07:07:54;;;;;;;14.93;9.70;;;;;;;1.86;97.73;96512.41;5020901;28;20178;-80
2020/12/01 07:10:28;;;;;;;14.50;9.07;;;;;;;1.88;97.97;96505.31;5019995;28;20639;-78
2020/12/01 07:12:55;;;;;;;16.07;9.93;;;;;;;1.81;98.00;96501.00;5020110;28;20272;-77
2020/12/01 07:16:05;;;;;;;13.80;9.53;;;;;;;1.97;97.32;96490.50;5025719;28;20187;-76
2020/12/01 07:18:32;;;;;;;13.10;8.90;;;;;;;2.00;97.77;96488.38;4932536;29;20282;-76
2020/12/01 07:21:23;;;;;;;13.73;9.37;;;;;;;1.94;97.79;96504.59;5006122;28;20235;-77
2020/12/01 07:23:58;;;;;;;16.63;9.37;;;;;;;1.97;97.55;96501.63;4999733;28;20181;-72
2020/12/01 07:26:37;;;;;;;14.10;9.83;;;;;;;2.02;97.43;96495.91;5023265;28;20643;-71
2020/12/01 07:29:07;;;;;;;13.60;8.33;;;;;;;1.99;97.66;96493.72;5025998;28;20194;-71
2020/12/01 07:31:36;;;;;;;14.13;9.37;;;;;;;2.04;97.03;96497.34;5025043;28;20321;-71
2020/12/01 07:34:24;;;;;;;13.60;9.03;;;;;;;2.06;97.00;96500.53;5014930;28;20191;-71
2020/12/01 07:36:55;;;;;;;11.33;8.57;;;;;;;1.95;97.12;96508.75;5026534;28;20222;-71
2020/12/01 07:39:28;;;;;;;15.67;8.97;;;;;;;1.97;97.27;96501.63;5020670;28;20183;-71
2020/12/01 07:42:03;;;;;;;13.10;8.90;;;;;;;1.91;97.48;96517.84;5015954;28;20484;-71
2020/12/01 07:44:38;;;;;;;12.27;8.73;;;;;;;1.91;97.71;96511.88;5011522;28;20178;-71
2020/12/01 07:47:05;;;;;;;13.90;8.53;;;;;;;1.93;97.55;96513.31;5015962;28;20285;-71
2020/12/01 07:49:31;;;;;;;15.17;9.40;;;;;;;2.02;97.16;96507.06;5007749;28;20209;-71
2020/12/01 07:52:14;;;;;;;11.87;8.80;;;;;;;1.98;97.50;96507.59;5019143;28;20187;-70
2020/12/01 07:54:43;;;;;;;11.40;8.27;;;;;;;2.12;96.98;96503.41;5019889;28;20237;-68
2020/12/01 07:57:26;;;;;;;13.70;9.67;;;;;;;2.13;96.28;96505.00;5013231;28;20175;-71
2020/12/01 07:59:52;;;;;;;11.77;8.63;;;;;;;2.08;96.61;96508.13;5016269;28;20226;-71
2020/12/01 08:02:23;;;;;;;13.30;9.10;;;;;;;2.18;96.47;96507.84;5027922;28;20213;-71
2020/12/01 08:04:58;;;;;;;12.23;9.00;;;;;;;2.16;97.63;96510.63;5020658;28;20695;-71
2020/12/01 08:07:23;;;;;;;11.77;9.00;;;;;;;2.14;96.77;96509.19;5010368;28;20178;-71
2020/12/01 08:09:59;;;;;;;12.80;8.57;;;;;;;2.09;96.62;96517.47;5011794;28;20218;-71
2020/12/01 08:12:31;;;;;;;15.63;9.10;;;;;;;2.17;96.51;96509.66;5023632;28;20197;-71
2020/12/01 08:14:57;;;;;;;10.67;8.20;;;;;;;2.22;95.81;96515.06;5015181;28;20175;-71
2020/12/01 08:17:28;;;;;;;12.93;8.60;;;;;;;2.24;96.51;96520.84;5023062;28;20186;-71
2020/12/01 08:19:55;;;;;;;13.07;8.90;;;;;;;2.20;96.21;96514.44;5016747;28;20179;-71
2020/12/01 08:22:27;;;;;;;12.23;8.27;;;;;;;2.22;96.04;96517.66;5023760;28;20187;-71
2020/12/01 08:24:58;;;;;;;13.37;8.90;;;;;;;2.27;96.40;96522.28;5016614;28;20175;-71
2020/12/01 08:27:31;;;;;;;13.23;9.27;;;;;;;2.25;95.72;96524.22;5020244;28;20187;-71
2020/12/01 08:30:00;;;;;;;12.00;8.50;;;;;;;2.32;96.07;96522.53;5022772;28;20673;-71
2020/12/01 08:32:36;;;;;;;12.33;8.50;;;;;;;2.26;96.08;96518.88;5021400;28;20245;-71
2020/12/01 08:35:21;;;;;;;10.87;8.00;;;;;;;2.26;96.33;96520.66;4995109;28;20520;-71
2020/12/01 08:38:04;;;;;;;12.17;8.30;;;;;;;2.27;95.86;96523.09;4997726;28;20194;-71
2020/12/01 08:40:35;;;;;;;10.23;8.17;;;;;;;2.36;95.47;96522.00;5015517;28;20248;-71
2020/12/01 08:43:46;;;;;;;13.47;9.00;;;;;;;2.46;95.25;96521.69;5027123;28;20629;-71
2020/12/01 08:46:23;;;;;;;13.47;8.57;;;;;;;2.49;94.38;96526.50;5007282;28;20229;-71
2020/12/01 08:49:06;;;;;;;11.93;7.73;;;;;;;2.39;95.41;96526.81;5014599;28;20290;-70
2020/12/01 08:51:55;;;;;;;10.07;7.97;;;;;;;2.34;95.32;96530.94;5001610;28;20186;-71
2020/12/01 08:54:31;;;;;;;10.37;7.70;;;;;;;2.33;95.39;96529.31;5006171;28;20179;-71
2020/12/01 08:57:18;;;;;;;11.53;7.60;;;;;;;2.38;94.91;96530.38;5029016;28;20175;-71
2020/12/01 08:59:53;;;;;;;10.67;7.37;;;;;;;2.37;95.79;96530.53;5018622;28;20190;-71
2020/12/01 09:02:20;;;;;;;11.73;8.10;;;;;;;2.36;95.21;96532.31;5027634;28;20258;-71
2020/12/01 09:04:46;;;;;;;11.00;7.20;;;;;;;2.36;95.54;96532.31;5028880;28;20199;-71
2020/12/01 09:07:17;;;;;;;9.40;7.87;;;;;;;2.36;94.97;96534.91;5024022;28;20721;-71
2020/12/01 09:09:44;;;;;;;11.07;7.20;;;;;;;2.45;94.46;96539.00;5023131;28;20568;-71
2020/12/01 09:15:11;;;;;;;10.30;7.80;;;;;;;2.45;95.24;96535.63;5004939;28;20265;-69
2020/12/01 09:22:41;;;;;;;10.83;6.20;;;;;;;2.77;93.28;96532.59;5031128;28;20183;-69
2020/12/01 09:25:19;;;;;;;8.03;6.00;;;;;;;2.62;94.28;96528.44;5017825;28;20572;-68
2020/12/01 09:27:46;;;;;;;7.03;5.67;;;;;;;2.66;93.45;96532.25;5017860;28;20538;-69
2020/12/01 09:30:27;;;;;;;7.90;6.07;;;;;;;2.70;93.42;96542.06;5015424;28;20604;-68
2020/12/01 09:32:54;;;;;;;8.47;5.47;;;;;;;2.76;93.80;96537.94;5015350;28;20632;-69
2020/12/01 09:35:19;;;;;;;8.67;5.73;;;;;;;2.83;93.38;96546.56;5008482;28;20184;-69
2020/12/01 09:37:45;;;;;;;8.80;6.47;;;;;;;2.89;92.66;96553.59;5025905;28;20191;-69
2020/12/01 09:40:10;;;;;;;8.17;6.73;;;;;;;2.75;93.62;96555.25;5018280;28;20183;-68
2020/12/01 09:42:37;;;;;;;9.97;7.63;;;;;;;2.74;93.21;96551.06;5018336;28;20536;-69
2020/12/01 09:45:16;;;;;;;11.07;8.17;;;;;;;2.79;93.65;96553.09;5001709;28;20269;-69
2020/12/01 09:47:50;;;;;;;15.13;10.87;;;;;;;2.71;93.72;96554.03;5024566;28;20185;-67
2020/12/01 09:50:22;;;;;;;13.57;9.80;;;;;;;2.74;93.18;96551.06;5019918;28;20195;-69
2020/12/01 09:53:11;;;;;;;9.37;7.27;;;;;;;2.67;93.96;96551.97;5029625;28;20181;-69
2020/12/01 09:55:57;;;;;;;8.57;5.97;;;;;;;2.60;95.18;96551.09;5020898;28;20197;-69
2020/12/01 09:58:40;;;;;;;7.30;5.80;;;;;;;2.66;93.90;96555.56;5022245;28;20538;-69
2020/12/01 10:09:08;;;;;;;9.87;7.03;;;;;;;2.25;94.85;96555.25;5025189;28;20297;-69
2020/12/01 10:20:46;;;;;;;7.87;5.50;;;;;;;2.45;95.75;96554.50;4974958;28;20785;-72
2020/12/01 10:36:16;;;;;;;7.53;5.47;;;;;;;2.59;94.73;96539.94;5020523;28;20714;-72
2020/12/01 10:38:42;;;;;;;8.03;5.63;;;;;;;2.69;94.85;96553.38;5028629;28;20638;-68
2020/12/01 10:41:07;;;;;;;6.93;5.40;;;;;;;2.86;94.49;96546.19;5010659;28;20183;-73
2020/12/01 10:43:33;;;;;;;9.13;5.53;;;;;;;3.05;92.92;96548.19;5001808;28;20186;-72
2020/12/01 10:45:58;;;;;;;10.67;5.93;;;;;;;2.88;93.77;96554.59;5022203;28;20638;-72
2020/12/01 10:48:23;;;;;;;9.30;5.67;;;;;;;2.88;93.35;96544.25;5019681;28;20202;-72
2020/12/01 10:50:49;;;;;;;9.03;6.27;;;;;;;2.99;93.58;96553.28;5028547;28;20194;-72
2020/12/01 10:53:14;;;;;;;8.43;5.73;;;;;;;3.04;92.12;96562.09;5000955;28;20257;-72
2020/12/01 10:55:40;;;;;;;7.33;5.30;;;;;;;2.93;93.25;96557.44;5025585;28;20218;-68
2020/12/01 10:58:05;;;;;;;8.27;5.87;;;;;;;3.03;93.07;96560.50;5017936;28;20174;-72
2020/12/01 11:00:31;;;;;;;7.83;5.60;;;;;;;2.86;93.61;96557.34;5016566;28;20662;-72
2020/12/01 11:02:56;;;;;;;6.23;5.57;;;;;;;2.96;93.16;96558.81;5026679;28;20218;-72
2020/12/01 11:05:29;;;;;;;5.77;5.10;;;;;;;3.02;92.93;96565.84;5023932;28;20183;-73
2020/12/01 11:07:54;;;;;;;5.63;4.40;;;;;;;3.04;92.08;96559.53;5019815;28;20616;-72
2020/12/01 11:10:19;;;;;;;5.87;5.03;;;;;;;2.92;92.86;96566.97;5028076;28;20211;-72
2020/12/01 11:12:45;;;;;;;5.63;4.70;;;;;;;2.95;92.63;96563.22;5001200;28;20645;-72
2020/12/01 11:15:11;;;;;;;5.23;4.60;;;;;;;2.99;92.26;96564.47;5012057;28;20624;-72
2020/12/01 11:17:36;;;;;;;7.57;5.33;;;;;;;2.89;93.09;96564.75;5020537;28;20191;-72
2020/12/01 11:20:07;;;;;;;5.73;5.10;;;;;;;2.88;92.83;96560.56;5024741;28;20317;-70
2020/12/01 11:22:34;;;;;;;5.77;5.17;;;;;;;2.96;92.11;96564.81;5015301;28;20195;-72
2020/12/01 11:24:59;;;;;;;5.27;4.77;;;;;;;2.95;92.46;96567.59;5025210;28;20601;-72
2020/12/01 11:27:25;;;;;;;6.57;5.07;;;;;;;2.87;93.57;96565.91;5021164;28;20172;-72
2020/12/01 11:29:50;;;;;;;5.90;5.30;;;;;;;3.06;92.98;96562.75;5018377;28;20215;-71
2020/12/01 11:32:16;;;;;;;7.90;5.67;;;;;;;3.04;92.51;96572.47;5027812;28;20178;-71
2020/12/01 11:34:42;;;;;;;6.20;4.93;;;;;;;3.02;92.35;96564.06;5018330;28;20555;-67
2020/12/01 11:37:07;;;;;;;7.60;5.30;;;;;;;3.17;92.17;96566.63;5012289;28;20278;-71
2020/12/01 11:39:33;;;;;;;6.63;5.87;;;;;;;3.08;92.29;96570.28;5019297;28;20706;-72
2020/12/01 11:41:58;;;;;;;7.03;5.53;;;;;;;3.06;92.10;96567.13;5015972;28;20183;-72
2020/12/01 11:44:24;;;;;;;8.87;5.50;;;;;;;2.97;93.11;96574.19;5022947;28;20240;-74
2020/12/01 11:46:49;;;;;;;6.60;5.43;;;;;;;2.99;92.70;96574.00;5018388;28;20227;-72
2020/12/01 11:49:15;;;;;;;6.70;5.47;;;;;;;3.04;92.64;96571.66;5003659;28;20686;-72
2020/12/01 11:51:41;;;;;;;6.60;5.10;;;;;;;3.04;92.75;96571.66;5014059;28;20221;-68
2020/12/01 11:54:09;;;;;;;7.80;5.37;;;;;;;2.90;92.77;96566.34;4996493;28;20195;-72
2020/12/01 11:56:35;;;;;;;5.83;5.20;;;;;;;3.00;92.84;96570.44;5007391;28;20187;-72
2020/12/01 11:59:01;;;;;;;9.53;5.70;;;;;;;2.97;92.29;96574.19;5015305;28;20191;-72
2020/12/01 12:01:27;;;;;;;6.23;5.20;;;;;;;3.03;91.98;96578.63;5023713;28;20260;-72
2020/12/01 12:03:52;;;;;;;8.13;5.83;;;;;;;3.15;91.83;96584.13;5016054;28;20194;-71
2020/12/01 12:06:18;;;;;;;6.27;5.67;;;;;;;3.03;92.47;96591.56;5024008;28;20206;-71
2020/12/01 12:08:44;;;;;;;7.53;5.43;;;;;;;2.98;93.39;96583.56;5016650;28;20249;-68
2020/12/01 12:11:10;;;;;;;7.97;5.40;;;;;;;3.00;92.58;96586.78;5009975;28;20191;-73
2020/12/01 12:13:35;;;;;;;7.33;5.37;;;;;;;2.97;92.61;96584.53;5015891;28;20261;-72
2020/12/01 12:16:01;;;;;;;6.77;5.63;;;;;;;3.02;93.21;96576.22;5023694;28;20219;-71
2020/12/01 12:18:26;;;;;;;7.27;5.70;;;;;;;2.95;93.48;96575.38;5011665;28;20220;-72
2020/12/01 12:20:52;;;;;;;6.93;5.57;;;;;;;3.02;93.36;96579.59;5022432;28;20234;-72
2020/12/01 12:23:17;;;;;;;7.63;6.40;;;;;;;3.01;93.02;96580.59;4997691;28;20203;-72
2020/12/01 12:25:43;;;;;;;7.03;6.27;;;;;;;2.94;93.28;96571.97;5014640;28;20699;-68
2020/12/01 12:28:08;;;;;;;9.23;6.83;;;;;;;3.03;93.53;96575.22;5021606;28;20182;-72
2020/12/01 12:30:34;;;;;;;10.33;6.47;;;;;;;2.82;94.27;96573.44;5033641;28;20198;-72
2020/12/01 12:32:59;;;;;;;7.33;6.40;;;;;;;2.89;94.66;96561.38;4989096;28;21037;-73